Time;durP1;ratioP1;P1;durP2;ratioP2;P2;SDS_P1;SDS_P2;PMS_P1;PMS_P2;Temp;Humidity;BMP_temperature;BMP_pressure;BME280_temperature;BME280_humidity;BME280_pressure;Samples;Min_cycle;Max_cycle;Signal;HPM_P1;HPM_P2
2021/12/17 00:05:02;;;;;;;24.20;9.40;;;;;;;5.76;74.13;101988.52;107787;1292;22010;-74
2021/12/17 00:07:35;;;;;;;24.40;10.30;;;;;;;5.72;73.99;101988.07;108013;1292;22054;-75
2021/12/17 00:10:13;;;;;;;14.80;9.00;;;;;;;5.69;74.13;101988.77;107849;1293;23710;-74
2021/12/17 00:12:45;;;;;;;21.10;10.00;;;;;;;5.67;74.13;101980.66;107540;1292;21985;-75
2021/12/17 00:15:14;;;;;;;21.90;9.90;;;;;;;5.67;74.18;101980.17;107711;1292;22051;-76
2021/12/17 00:17:54;;;;;;;20.10;9.10;;;;;;;5.67;74.24;101980.66;107831;1288;23669;-76
2021/12/17 00:48:24;;;;;;;25.60;9.60;;;;;;;5.56;73.78;101975.08;107761;1292;22798;-74
2021/12/17 00:53:31;;;;;;;17.00;7.20;;;;;;;5.52;73.88;101985.59;107774;1291;22003;-74
2021/12/17 00:56:00;;;;;;;19.10;7.50;;;;;;;5.49;73.85;101983.91;107353;1298;22118;-73
2021/12/17 00:58:31;;;;;;;23.20;9.30;;;;;;;5.48;73.91;101984.29;107397;1298;22786;-74
2021/12/17 01:01:00;;;;;;;21.50;8.80;;;;;;;5.48;73.93;101989.88;107132;1301;21996;-74
2021/12/17 01:03:29;;;;;;;16.30;6.90;;;;;;;5.48;73.97;101992.52;107162;1298;22008;-73
2021/12/17 01:05:59;;;;;;;19.60;7.80;;;;;;;5.47;73.79;101998.20;107206;1298;23871;-74
2021/12/17 01:08:28;;;;;;;19.40;7.20;;;;;;;5.45;73.89;102000.90;107018;1298;22260;-74
2021/12/17 01:11:01;;;;;;;20.70;8.10;;;;;;;5.45;73.93;102000.38;107065;1299;22862;-75
2021/12/17 01:13:56;;;;;;;21.10;8.40;;;;;;;5.45;73.80;102005.48;107068;1301;23602;-74
2021/12/17 01:16:44;;;;;;;21.40;8.40;;;;;;;5.45;73.85;102007.25;107352;1298;23129;-75
2021/12/17 01:38:01;;;;;;;19.40;8.70;;;;;;;5.39;73.70;101991.48;107135;1301;23160;-74
2021/12/17 01:42:57;;;;;;;25.80;7.80;;;;;;;5.35;73.89;101992.79;107189;1300;22018;-74
2021/12/17 01:45:31;;;;;;;19.90;8.00;;;;;;;5.37;73.96;101996.00;107176;1300;23094;-74
2021/12/17 01:48:02;;;;;;;18.10;7.30;;;;;;;5.37;73.82;102005.42;106875;1301;23110;-74
2021/12/17 01:59:21;;;;;;;25.50;7.40;;;;;;;5.30;73.68;101997.83;107379;1298;23103;-74
2021/12/17 02:01:59;;;;;;;23.00;7.30;;;;;;;5.27;73.65;101985.76;107705;1289;23630;-75
2021/12/17 02:04:31;;;;;;;16.70;6.40;;;;;;;5.23;73.62;101979.73;107994;1289;22346;-74
2021/12/17 02:07:03;;;;;;;19.80;7.00;;;;;;;5.23;73.72;101979.02;107904;1289;23007;-74
2021/12/17 02:20:44;;;;;;;20.30;5.80;;;;;;;5.02;73.53;101951.00;107419;1298;22018;-74
2021/12/17 02:32:17;;;;;;;18.90;6.10;;;;;;;4.73;73.54;101964.02;107144;1294;22761;-74
2021/12/17 02:37:23;;;;;;;24.10;6.90;;;;;;;4.64;73.84;101958.30;107654;1294;22714;-74
2021/12/17 02:45:32;;;;;;;18.70;5.80;;;;;;;4.50;73.99;101961.55;108036;1289;23627;-74
2021/12/17 02:48:17;;;;;;;20.20;7.00;;;;;;;4.46;74.11;101957.73;107913;1291;23466;-74
2021/12/17 02:50:59;;;;;;;19.10;7.00;;;;;;;4.42;74.19;101954.70;107952;1289;22000;-74
2021/12/17 02:53:30;;;;;;;30.90;6.80;;;;;;;4.38;74.33;101959.11;108018;1291;22031;-72
2021/12/17 02:56:05;;;;;;;15.90;6.40;;;;;;;4.35;74.42;101956.64;108009;1289;23716;-73
2021/12/17 02:58:37;;;;;;;18.10;6.60;;;;;;;4.33;74.48;101949.29;108162;1289;22024;-73
2021/12/17 03:01:08;;;;;;;21.60;6.60;;;;;;;4.30;74.57;101944.90;107970;1289;22035;-73
2021/12/17 03:03:40;;;;;;;17.40;6.50;;;;;;;4.27;74.55;101939.33;107879;1289;23700;-74
2021/12/17 03:06:09;;;;;;;22.00;6.80;;;;;;;4.25;74.72;101947.10;108019;1289;21998;-74
2021/12/17 03:08:38;;;;;;;18.10;7.50;;;;;;;4.24;74.81;101950.81;108030;1289;23605;-74
2021/12/17 03:11:09;;;;;;;23.40;6.80;;;;;;;4.22;74.89;101952.84;108113;1289;22060;-74
2021/12/17 03:13:38;;;;;;;22.20;6.40;;;;;;;4.21;74.95;101959.69;107989;1289;23195;-73
2021/12/17 03:16:28;;;;;;;27.60;8.40;;;;;;;4.18;74.97;101961.27;108093;1289;22937;-74
2021/12/17 03:19:04;;;;;;;25.70;6.50;;;;;;;4.15;75.15;101961.65;108159;1289;23608;-74
2021/12/17 03:24:22;;;;;;;20.00;6.70;;;;;;;4.17;75.60;101964.83;108011;1288;22035;-74
2021/12/17 03:26:52;;;;;;;20.10;7.10;;;;;;;4.21;75.73;101971.39;108024;1291;21996;-74
2021/12/17 03:29:21;;;;;;;18.00;7.10;;;;;;;4.26;75.84;101975.30;107704;1294;23695;-73
2021/12/17 03:31:53;;;;;;;23.00;7.40;;;;;;;4.30;75.83;101966.87;107716;1293;23599;-74
2021/12/17 03:34:22;;;;;;;28.80;8.00;;;;;;;4.35;75.91;101967.11;107720;1294;22046;-73
2021/12/17 03:36:56;;;;;;;28.90;7.00;;;;;;;4.42;75.93;101969.33;107870;1293;22370;-74
2021/12/17 03:39:31;;;;;;;15.80;6.40;;;;;;;4.49;75.97;101975.19;107652;1294;23755;-74
2021/12/17 03:42:03;;;;;;;18.90;6.90;;;;;;;4.53;75.87;101973.55;107800;1293;21995;-74
2021/12/17 03:44:36;;;;;;;22.90;6.50;;;;;;;4.56;75.85;101971.45;107608;1294;22069;-74
2021/12/17 03:47:31;;;;;;;17.90;6.90;;;;;;;4.60;75.78;101980.86;107871;1288;21992;-74
2021/12/17 03:50:13;;;;;;;21.30;7.20;;;;;;;4.65;75.86;101981.25;108041;1289;21994;-74
2021/12/17 03:52:43;;;;;;;15.30;5.80;;;;;;;4.71;75.92;101977.41;107940;1291;23715;-73
2021/12/17 03:55:12;;;;;;;20.60;7.00;;;;;;;4.75;75.68;101982.23;107240;1299;23803;-75
2021/12/17 03:57:45;;;;;;;23.50;7.30;;;;;;;4.79;75.66;101986.05;107280;1299;22002;-74
2021/12/17 04:00:14;;;;;;;20.60;7.00;;;;;;;4.80;75.69;101991.18;107104;1300;22175;-73
2021/12/17 04:02:46;;;;;;;;;;;;;;;4.82;75.66;101987.41;107090;1300;21982;-74
2021/12/17 04:05:31;;;;;;;21.20;6.70;;;;;;;4.77;75.71;101986.00;107283;1299;22029;-73
2021/12/17 04:08:00;;;;;;;21.20;7.70;;;;;;;4.79;75.79;101980.27;107239;1300;22002;-73
2021/12/17 04:10:51;;;;;;;23.90;7.30;;;;;;;4.83;75.70;101978.44;107364;1297;23726;-74
2021/12/17 04:16:01;;;;;;;16.80;6.10;;;;;;;4.88;75.63;101969.08;108047;1289;23633;-74
2021/12/17 04:18:32;;;;;;;15.90;6.00;;;;;;;4.88;75.50;101964.86;108026;1289;22050;-75
2021/12/17 04:21:03;;;;;;;17.30;6.40;;;;;;;4.89;75.61;101957.48;107803;1289;22414;-73
2021/12/17 04:23:32;;;;;;;20.50;6.60;;;;;;;4.89;75.47;101957.68;108126;1289;21989;-74
2021/12/17 04:26:02;;;;;;;19.50;5.50;;;;;;;4.90;75.58;101956.77;108046;1289;22785;-73
2021/12/17 04:28:31;;;;;;;26.00;7.80;;;;;;;4.89;75.57;101953.80;107942;1289;23017;-73
2021/12/17 04:31:01;;;;;;;22.00;6.10;;;;;;;4.91;75.49;101950.92;108043;1289;22004;-73
2021/12/17 04:33:31;;;;;;;26.50;7.70;;;;;;;4.91;75.43;101948.27;108068;1289;22361;-73
2021/12/17 04:36:00;;;;;;;18.40;6.90;;;;;;;4.89;75.41;101938.63;108064;1288;22920;-73
2021/12/17 04:38:29;;;;;;;23.40;7.40;;;;;;;4.86;75.41;101945.95;108048;1291;23767;-74
2021/12/17 04:57:19;;;;;;;21.00;6.70;;;;;;;4.73;75.54;101934.55;107541;1295;21995;-74
2021/12/17 04:57:47;;;;;;;22.60;7.20;;;;;;;4.67;75.51;101930.15;107600;1292;24771;-74
2021/12/17 05:00:26;;;;;;;15.00;5.10;;;;;;;4.66;75.62;101923.59;108008;1289;22093;-74
2021/12/17 05:03:04;;;;;;;18.80;6.60;;;;;;;4.63;75.51;101913.98;108094;1288;21994;-73
2021/12/17 05:05:34;;;;;;;22.20;6.30;;;;;;;4.61;75.59;101920.56;108075;1288;23791;-73
2021/12/17 05:08:13;;;;;;;17.80;5.90;;;;;;;4.60;75.53;101918.39;107648;1292;23618;-73
2021/12/17 05:19:14;;;;;;;19.60;6.10;;;;;;;4.49;75.78;101923.59;107386;1298;22780;-74
2021/12/17 05:21:44;;;;;;;22.20;6.20;;;;;;;4.49;75.76;101925.17;107331;1298;23759;-73
2021/12/17 05:24:13;;;;;;;26.20;6.90;;;;;;;4.47;75.90;101931.02;107343;1294;22001;-73
2021/12/17 05:26:42;;;;;;;22.50;7.40;;;;;;;4.47;75.98;101930.48;107536;1293;22035;-73
2021/12/17 05:29:11;;;;;;;18.70;5.80;;;;;;;4.46;76.06;101934.36;107831;1288;22034;-74
2021/12/17 05:31:42;;;;;;;19.00;7.40;;;;;;;4.48;76.07;101941.73;108031;1289;23605;-75
2021/12/17 05:34:11;;;;;;;22.30;6.50;;;;;;;4.48;76.06;101945.58;108029;1289;22027;-74
2021/12/17 05:37:00;;;;;;;29.60;8.30;;;;;;;4.50;76.20;101954.21;108054;1289;22015;-73
2021/12/17 05:39:30;;;;;;;26.60;6.80;;;;;;;4.52;76.22;101954.64;108138;1288;23595;-73
2021/12/17 05:42:01;;;;;;;26.10;8.70;;;;;;;4.54;76.26;101955.73;108074;1289;23716;-73
2021/12/17 05:44:36;;;;;;;24.00;7.20;;;;;;;4.57;76.28;101966.59;108183;1288;23133;-73
2021/12/17 05:47:06;;;;;;;17.40;6.30;;;;;;;4.58;76.25;101967.69;108044;1289;21998;-72
2021/12/17 05:49:35;;;;;;;30.30;7.90;;;;;;;4.59;76.24;101963.45;107651;1293;22015;-73
2021/12/17 05:52:05;;;;;;;20.60;6.40;;;;;;;4.61;76.22;101968.92;107651;1293;23730;-73
2021/12/17 05:54:37;;;;;;;17.10;6.70;;;;;;;4.63;76.28;101966.23;107223;1300;22413;-73
2021/12/17 05:57:07;;;;;;;24.10;6.20;;;;;;;4.64;76.22;101960.22;107025;1300;22009;-73
2021/12/17 05:59:37;;;;;;;22.80;7.80;;;;;;;4.65;76.22;101966.08;107230;1297;23627;-74
2021/12/17 06:02:11;;;;;;;23.80;8.10;;;;;;;4.68;76.18;101970.80;107250;1299;23640;-73
2021/12/17 06:04:46;;;;;;;19.40;6.60;;;;;;;4.69;76.07;101968.78;107241;1300;21995;-74
2021/12/17 06:07:28;;;;;;;19.20;6.60;;;;;;;4.70;76.16;101966.63;107272;1297;22771;-73
2021/12/17 06:10:03;;;;;;;19.10;6.20;;;;;;;4.71;76.02;101962.94;107658;1294;23598;-73
2021/12/17 06:12:38;;;;;;;20.80;6.70;;;;;;;4.70;75.92;101958.80;107830;1289;22021;-74
2021/12/17 06:15:12;;;;;;;21.90;6.20;;;;;;;4.68;75.85;101960.98;108170;1289;22048;-74
2021/12/17 06:17:43;;;;;;;19.90;6.10;;;;;;;4.67;75.77;101961.23;108081;1289;23738;-74
2021/12/17 06:20:16;;;;;;;17.10;5.90;;;;;;;4.67;75.83;101965.92;107808;1291;22061;-75
2021/12/17 06:22:48;;;;;;;22.50;6.90;;;;;;;4.69;75.79;101961.31;108066;1289;21989;-74
2021/12/17 06:25:17;;;;;;;19.60;6.30;;;;;;;4.69;75.76;101967.95;108050;1289;22967;-73
2021/12/17 06:27:46;;;;;;;24.10;8.30;;;;;;;4.69;75.78;101972.45;107922;1291;21992;-74
2021/12/17 06:30:20;;;;;;;21.00;7.20;;;;;;;4.71;75.67;101982.29;107993;1289;21997;-74
2021/12/17 06:32:50;;;;;;;22.70;7.30;;;;;;;4.72;75.70;101978.54;108034;1289;21963;-73
2021/12/17 06:35:19;;;;;;;24.60;8.20;;;;;;;4.73;75.70;101979.72;108016;1284;22603;-72
2021/12/17 06:37:48;;;;;;;21.10;7.30;;;;;;;4.75;75.57;101978.75;107991;1286;22057;-73
2021/12/17 06:40:26;;;;;;;22.50;8.10;;;;;;;4.75;75.58;101978.24;107700;1293;23602;-74
2021/12/17 06:42:57;;;;;;;19.00;6.60;;;;;;;4.74;75.60;101980.37;107699;1290;21999;-73
2021/12/17 06:45:54;;;;;;;26.60;8.20;;;;;;;4.73;75.48;101973.63;107726;1294;23051;-73
2021/12/17 06:48:17;;;;;;;23.40;7.00;;;;;;;4.73;75.42;101976.27;107815;1292;22019;-74
2021/12/17 07:23:08;;;;;;;20.20;7.10;;;;;;;4.78;75.20;102014.05;108169;1287;21978;-73
2021/12/17 07:28:45;;;;;;;20.30;8.10;;;;;;;4.77;75.22;102020.91;108431;1288;23023;-75
2021/12/17 07:34:03;;;;;;;22.20;7.70;;;;;;;4.87;75.20;102027.65;108389;1289;23130;-77
2021/12/17 07:39:30;;;;;;;22.50;9.60;;;;;;;4.93;75.03;102020.62;108179;1287;25135;-78
2021/12/17 07:42:18;;;;;;;24.80;9.30;;;;;;;4.98;74.98;102020.04;108410;1285;21963;-78
2021/12/17 07:44:57;;;;;;;20.40;9.00;;;;;;;5.01;74.81;102026.30;108137;1287;22048;-73
2021/12/17 07:47:54;;;;;;;25.90;10.80;;;;;;;4.98;74.40;102027.87;108066;1284;22287;-75
2021/12/17 07:50:29;;;;;;;23.00;10.60;;;;;;;4.95;74.32;102018.25;108197;1287;22602;-76
2021/12/17 07:53:24;;;;;;;24.90;11.30;;;;;;;4.91;74.26;102028.41;107957;1288;22478;-74
2021/12/17 07:56:06;;;;;;;26.40;9.80;;;;;;;4.88;74.28;102023.00;108130;1288;22002;-72
2021/12/17 07:58:39;;;;;;;24.20;10.40;;;;;;;4.86;74.37;102026.29;108132;1284;22316;-73
2021/12/17 08:01:11;;;;;;;27.30;12.90;;;;;;;4.85;74.28;102029.49;108082;1288;22461;-73
2021/12/17 08:03:42;;;;;;;31.10;13.40;;;;;;;4.84;74.41;102033.02;108197;1286;22003;-74
2021/12/17 08:06:31;;;;;;;25.40;12.60;;;;;;;4.88;74.44;102039.42;108074;1288;23732;-72
2021/12/17 08:09:13;;;;;;;25.30;13.00;;;;;;;4.88;74.24;102051.98;108140;1286;23056;-73
2021/12/17 08:11:55;;;;;;;28.10;17.00;;;;;;;4.88;74.31;102051.48;108110;1288;22037;-72
2021/12/17 08:14:26;;;;;;;27.60;15.10;;;;;;;4.86;74.16;102054.92;108165;1287;23900;-73
2021/12/17 08:17:30;;;;;;;24.60;13.30;;;;;;;4.86;74.27;102055.96;108347;1287;24454;-72
2021/12/17 08:25:30;;;;;;;32.50;11.20;;;;;;;4.87;74.31;102058.36;108227;1288;21995;-73
2021/12/17 08:28:06;;;;;;;28.70;12.00;;;;;;;4.87;74.32;102062.39;108112;1288;21994;-74
2021/12/17 08:30:40;;;;;;;28.10;12.50;;;;;;;4.87;74.35;102061.69;108109;1288;23627;-73
2021/12/17 08:33:18;;;;;;;23.60;12.00;;;;;;;4.87;74.46;102068.63;108185;1287;22008;-73
2021/12/17 08:35:49;;;;;;;32.50;14.40;;;;;;;4.88;74.38;102068.58;108197;1288;22161;-73
2021/12/17 08:38:25;;;;;;;32.40;11.90;;;;;;;4.91;74.27;102066.85;108237;1287;22190;-73
2021/12/17 08:40:58;;;;;;;23.70;11.40;;;;;;;4.89;74.24;102059.80;107980;1289;21980;-72
2021/12/17 08:43:27;;;;;;;26.80;12.70;;;;;;;4.90;74.28;102063.42;107834;1292;23061;-73
2021/12/17 08:45:57;;;;;;;22.40;10.00;;;;;;;4.91;74.33;102059.89;107836;1292;22005;-74
2021/12/17 08:48:49;;;;;;;33.60;13.70;;;;;;;4.92;74.30;102059.09;107775;1292;22472;-73
2021/12/17 08:51:34;;;;;;;26.40;11.00;;;;;;;4.93;74.31;102055.55;107748;1292;24434;-73
2021/12/17 08:54:04;;;;;;;24.90;10.40;;;;;;;4.96;74.34;102060.46;107764;1292;21996;-73
2021/12/17 08:56:43;;;;;;;24.20;10.30;;;;;;;4.96;74.17;102059.21;108060;1292;22018;-74
2021/12/17 08:59:16;;;;;;;25.20;10.40;;;;;;;4.96;74.08;102063.40;107702;1292;23522;-72
2021/12/17 09:02:05;;;;;;;19.10;8.90;;;;;;;4.95;74.15;102070.98;108043;1288;23729;-74
2021/12/17 09:04:36;;;;;;;;;;;;;;;4.96;74.23;102069.84;108222;1288;21978;-73
2021/12/17 09:07:06;;;;;;;24.90;9.80;;;;;;;4.92;74.29;102066.09;108040;1289;23115;-72
2021/12/17 09:09:36;;;;;;;21.90;9.70;;;;;;;4.92;74.34;102068.85;108139;1288;22100;-73
2021/12/17 09:12:14;;;;;;;22.30;7.50;;;;;;;4.98;74.42;102066.10;108098;1288;21993;-72
2021/12/17 09:14:43;;;;;;;24.60;8.60;;;;;;;5.02;74.36;102071.11;107743;1292;22047;-73
2021/12/17 09:17:38;;;;;;;31.00;16.10;;;;;;;5.04;74.20;102067.64;107828;1291;22014;-72
2021/12/17 09:20:09;;;;;;;28.90;9.60;;;;;;;5.07;74.25;102063.80;107814;1292;23594;-72
2021/12/17 09:22:39;;;;;;;22.00;7.30;;;;;;;5.11;74.12;102057.45;107752;1292;22043;-72
2021/12/17 09:25:10;;;;;;;25.50;9.20;;;;;;;5.17;74.13;102044.73;107818;1292;23098;-73
2021/12/17 09:27:54;;;;;;;32.60;12.70;;;;;;;5.20;73.86;102046.46;107805;1291;22070;-73
2021/12/17 09:30:31;;;;;;;22.70;10.00;;;;;;;5.20;73.78;102042.10;107378;1298;22153;-73
2021/12/17 09:33:00;;;;;;;21.40;9.30;;;;;;;5.26;73.82;102045.24;106820;1300;23215;-73
2021/12/17 09:35:29;;;;;;;21.50;8.00;;;;;;;5.34;73.83;102040.70;106978;1300;22032;-74
2021/12/17 09:37:58;;;;;;;22.30;8.90;;;;;;;5.38;73.43;102037.30;106936;1299;22054;-73
2021/12/17 09:40:28;;;;;;;22.50;9.50;;;;;;;5.42;73.42;102038.11;106902;1300;22025;-73
2021/12/17 09:42:57;;;;;;;23.60;9.30;;;;;;;5.48;73.28;102044.74;107128;1300;22027;-73
2021/12/17 09:45:26;;;;;;;23.10;8.70;;;;;;;5.49;72.95;102052.20;106835;1299;21986;-72
2021/12/17 09:47:56;;;;;;;21.60;9.80;;;;;;;5.50;72.85;102052.84;107160;1293;22022;-73
2021/12/17 09:50:26;;;;;;;34.30;12.60;;;;;;;5.50;72.65;102048.35;107325;1295;22002;-73
2021/12/17 09:52:55;;;;;;;22.50;10.60;;;;;;;5.52;72.74;102046.11;107576;1294;152015;-74
2021/12/17 09:55:25;;;;;;;22.90;8.70;;;;;;;5.54;72.62;102046.49;107741;1293;22481;-73
2021/12/17 09:57:55;;;;;;;22.60;9.30;;;;;;;5.52;72.23;102038.41;107778;1294;22042;-73
2021/12/17 10:00:26;;;;;;;31.10;10.70;;;;;;;5.49;72.20;102036.84;107416;1298;22078;-73
2021/12/17 10:03:00;;;;;;;28.10;11.40;;;;;;;5.47;72.14;102040.51;107553;1296;22254;-73
2021/12/17 10:05:37;;;;;;;25.00;9.20;;;;;;;5.46;72.27;102038.27;107472;1298;22034;-74
2021/12/17 10:08:22;;;;;;;23.90;9.60;;;;;;;5.48;72.31;102033.77;106829;1298;22350;-72
2021/12/17 10:11:01;;;;;;;28.40;10.80;;;;;;;5.51;72.42;102031.16;106859;1298;23860;-73
2021/12/17 10:13:42;;;;;;;29.30;11.20;;;;;;;5.54;72.39;102022.58;107395;1298;22020;-74
2021/12/17 10:16:12;;;;;;;29.00;12.40;;;;;;;5.55;72.40;102009.23;107330;1298;23048;-74
2021/12/17 10:18:49;;;;;;;30.80;11.80;;;;;;;5.60;72.53;102006.79;107353;1294;22090;-73
2021/12/17 10:21:34;;;;;;;26.70;13.00;;;;;;;5.64;72.26;102011.82;107661;1294;21998;-72
2021/12/17 10:24:07;;;;;;;29.60;13.30;;;;;;;5.63;72.15;102018.52;107545;1294;22013;-72
2021/12/17 10:26:42;;;;;;;22.70;9.90;;;;;;;5.63;72.25;102019.86;107782;1288;22129;-72
2021/12/17 10:29:31;;;;;;;28.10;11.40;;;;;;;5.64;72.23;102019.83;108045;1288;21995;-74
2021/12/17 10:32:00;;;;;;;28.70;10.30;;;;;;;5.69;72.30;102021.50;107994;1288;22984;-73
2021/12/17 10:35:22;;;;;;;23.60;9.30;;;;;;;5.69;71.98;102019.52;107868;1288;22028;-73
2021/12/17 10:38:10;;;;;;;27.60;8.60;;;;;;;5.62;71.88;102009.80;107340;1297;22011;-73
2021/12/17 10:41:01;;;;;;;;;;;;;;;;;;;;;
2021/12/17 10:43:57;;;;;;;30.00;9.10;;;;;;;5.64;72.03;102021.08;107502;1296;22010;-72
2021/12/17 10:46:32;;;;;;;26.90;10.80;;;;;;;5.65;71.81;102020.82;107164;1298;23752;-72
2021/12/17 10:49:17;;;;;;;20.30;7.90;;;;;;;5.66;71.67;102025.31;107481;1296;24619;-72
2021/12/17 10:52:00;;;;;;;26.40;8.00;;;;;;;5.66;71.62;102033.70;106576;1301;23804;-73
2021/12/17 10:54:38;;;;;;;21.10;7.70;;;;;;;5.64;71.33;102033.14;106736;1301;22015;-73
2021/12/17 10:57:12;;;;;;;20.00;7.90;;;;;;;5.62;71.41;102029.05;106963;1301;23037;-73
2021/12/17 11:00:11;;;;;;;17.30;8.60;;;;;;;5.64;71.40;102025.40;107006;1300;23867;-73
2021/12/17 11:02:53;;;;;;;21.10;8.60;;;;;;;5.65;71.32;102018.02;106341;1306;24897;-71
2021/12/17 11:05:34;;;;;;;20.80;8.70;;;;;;;5.66;71.27;102018.52;106388;1306;23778;-73
2021/12/17 11:08:37;;;;;;;24.80;9.10;;;;;;;5.68;71.36;102018.88;106091;1306;23624;-73
2021/12/17 11:11:12;;;;;;;21.00;8.00;;;;;;;5.74;71.24;102025.90;106454;1303;22558;-74
2021/12/17 11:13:57;;;;;;;26.10;8.80;;;;;;;5.76;71.20;102027.12;107327;1294;23051;-73
2021/12/17 11:16:34;;;;;;;23.90;9.50;;;;;;;5.78;71.21;102031.00;107248;1295;22003;-72
2021/12/17 11:19:34;;;;;;;22.70;9.00;;;;;;;5.79;71.02;102033.07;107438;1294;21999;-72
2021/12/17 11:22:17;;;;;;;20.90;9.00;;;;;;;5.76;70.90;102028.52;107744;1294;22416;-73
2021/12/17 11:25:10;;;;;;;20.30;9.30;;;;;;;5.76;70.89;102021.91;107434;1294;23701;-73
2021/12/17 11:27:40;;;;;;;30.40;9.30;;;;;;;5.81;70.93;102016.71;107564;1294;22038;-72
2021/12/17 11:30:19;;;;;;;21.50;9.60;;;;;;;5.84;70.85;102011.45;107561;1294;22796;-73
2021/12/17 11:32:56;;;;;;;;;;;;;;;5.85;70.71;102003.67;107403;1288;22464;-74
2021/12/17 11:35:46;;;;;;;22.90;11.60;;;;;;;5.80;70.93;101991.91;107556;1295;22608;-72
2021/12/17 11:38:51;;;;;;;25.10;10.60;;;;;;;5.80;70.72;101991.21;107542;1294;24354;-72
2021/12/17 11:42:24;;;;;;;26.20;11.00;;;;;;;5.78;70.75;101990.48;107665;1294;22471;-73
2021/12/17 11:48:19;;;;;;;32.20;12.70;;;;;;;5.89;70.90;101994.35;107436;1294;22008;-73
2021/12/17 11:51:07;;;;;;;27.60;12.90;;;;;;;5.93;70.75;101993.42;107546;1294;23026;-72
2021/12/17 11:54:08;;;;;;;23.80;11.40;;;;;;;5.96;70.75;101990.94;107619;1288;22016;-73
2021/12/17 11:56:55;;;;;;;24.00;10.50;;;;;;;5.96;70.59;101991.79;107078;1299;24454;-74
2021/12/17 11:59:27;;;;;;;27.20;11.50;;;;;;;5.94;70.50;101991.94;107005;1300;22047;-72
2021/12/17 12:02:04;;;;;;;25.10;12.70;;;;;;;5.91;70.44;101992.66;107070;1300;22009;-73
2021/12/17 12:05:00;;;;;;;28.90;10.80;;;;;;;5.90;70.46;101996.04;107071;1300;23017;-74
2021/12/17 12:07:37;;;;;;;23.60;12.60;;;;;;;5.89;70.55;101995.87;106462;1306;22094;-73
2021/12/17 12:10:09;;;;;;;22.60;11.40;;;;;;;5.93;70.51;101997.25;106099;1306;22034;-74
2021/12/17 12:12:42;;;;;;;24.70;12.20;;;;;;;5.94;70.28;101997.38;106494;1305;22621;-72
2021/12/17 12:15:32;;;;;;;22.80;12.00;;;;;;;5.95;70.32;101996.79;106798;1301;22115;-74
2021/12/17 12:18:18;;;;;;;27.30;12.20;;;;;;;5.97;70.14;101994.24;106470;1305;23041;-73
2021/12/17 12:20:51;;;;;;;24.00;12.00;;;;;;;5.97;70.23;101996.79;106124;1307;22321;-72
2021/12/17 12:23:39;;;;;;;26.90;11.60;;;;;;;5.95;69.93;101993.26;106410;1306;22030;-72
2021/12/17 12:26:22;;;;;;;30.20;12.90;;;;;;;5.94;69.89;101992.80;106313;1305;23039;-73
2021/12/17 12:28:54;;;;;;;21.20;10.50;;;;;;;5.93;69.94;101989.58;106518;1304;22017;-73
2021/12/17 12:31:52;;;;;;;24.20;10.50;;;;;;;5.92;70.07;101995.02;106178;1309;22093;-74
2021/12/17 12:34:41;;;;;;;21.50;9.30;;;;;;;5.88;69.88;101992.96;105854;1309;22030;-73
2021/12/17 12:37:24;;;;;;;21.50;9.70;;;;;;;5.84;69.76;101995.20;106225;1306;22813;-73
2021/12/17 12:39:58;;;;;;;26.10;12.50;;;;;;;5.79;69.78;101992.52;106019;1306;22016;-73
2021/12/17 12:42:40;;;;;;;28.70;11.20;;;;;;;5.77;69.81;101988.24;106289;1306;23846;-73
2021/12/17 12:45:12;;;;;;;25.80;9.50;;;;;;;5.78;69.91;101990.85;106364;1301;22077;-74
2021/12/17 12:47:55;;;;;;;20.90;8.30;;;;;;;5.78;69.80;101990.31;106630;1301;22128;-73
2021/12/17 12:50:27;;;;;;;20.00;6.60;;;;;;;5.76;69.69;101990.63;107065;1297;22030;-72
2021/12/17 12:53:12;;;;;;;24.40;8.00;;;;;;;5.73;69.66;101983.79;106999;1297;22009;-77
2021/12/17 12:55:52;;;;;;;17.30;6.00;;;;;;;5.73;69.73;101987.66;106511;1303;23070;-77
2021/12/17 12:58:29;;;;;;;21.00;8.00;;;;;;;5.75;69.83;101989.99;106855;1303;22487;-76
2021/12/17 13:01:13;;;;;;;22.80;11.10;;;;;;;5.78;69.74;101989.95;106250;1306;23058;-77
2021/12/17 13:03:48;;;;;;;22.20;9.90;;;;;;;5.82;69.66;101986.76;106384;1306;22024;-78
2021/12/17 13:06:32;;;;;;;35.00;14.70;;;;;;;5.84;69.57;101984.83;106327;1305;23077;-76
2021/12/17 13:09:12;;;;;;;26.10;10.20;;;;;;;5.91;69.77;101984.23;106117;1307;22226;-77
2021/12/17 13:12:02;;;;;;;26.40;9.90;;;;;;;5.94;69.39;101981.27;106351;1301;22028;-77
2021/12/17 13:14:43;;;;;;;19.90;9.80;;;;;;;5.93;69.26;101979.94;107378;1294;22067;-77
2021/12/17 13:20:15;;;;;;;28.90;11.80;;;;;;;5.94;69.25;101975.34;107477;1297;22061;-77
2021/12/17 13:20:56;;;;;;;21.90;9.00;;;;;;;5.95;69.28;101975.45;106842;1303;22040;-77
2021/12/17 13:23:47;;;;;;;24.60;9.70;;;;;;;5.95;69.21;101977.37;106879;1304;23614;-77
2021/12/17 13:26:27;;;;;;;29.60;10.20;;;;;;;5.95;69.09;101977.00;106785;1302;23065;-74
2021/12/17 13:29:13;;;;;;;19.30;9.10;;;;;;;6.04;69.69;101975.21;106513;1304;23051;-75
2021/12/17 13:32:02;;;;;;;22.80;9.00;;;;;;;6.22;69.80;101973.89;106579;1302;22492;-76
2021/12/17 13:35:00;;;;;;;24.50;9.50;;;;;;;6.32;68.96;101976.91;106575;1303;23960;-77
2021/12/17 13:37:38;;;;;;;29.10;9.90;;;;;;;6.25;67.97;101984.18;106568;1303;22029;-77
2021/12/17 13:40:16;;;;;;;23.60;10.10;;;;;;;6.17;67.79;101985.77;106611;1303;23451;-77
2021/12/17 13:43:00;;;;;;;23.10;9.80;;;;;;;6.12;67.82;101990.10;106922;1299;23077;-77
2021/12/17 13:45:55;;;;;;;27.10;9.70;;;;;;;6.07;67.89;101997.92;107155;1301;22014;-77
2021/12/17 13:48:35;;;;;;;23.10;9.20;;;;;;;6.05;68.11;102001.59;107032;1301;22056;-77
2021/12/17 13:51:25;;;;;;;24.40;9.40;;;;;;;6.04;68.26;102002.67;106978;1300;23078;-77
2021/12/17 13:54:07;;;;;;;18.80;7.70;;;;;;;6.02;68.29;102004.55;106735;1301;22967;-77
2021/12/17 13:56:44;;;;;;;17.00;7.20;;;;;;;6.00;68.24;102011.17;106621;1304;22301;-77
2021/12/17 13:59:32;;;;;;;20.00;8.50;;;;;;;5.97;68.14;102013.42;107093;1300;23739;-79
2021/12/17 14:02:26;;;;;;;24.70;9.20;;;;;;;5.96;68.13;102005.14;107494;1295;22395;-77
2021/12/17 14:05:08;;;;;;;23.30;9.00;;;;;;;5.95;68.24;102005.55;107468;1295;22996;-77
2021/12/17 14:07:52;;;;;;;23.00;8.50;;;;;;;5.90;68.12;102013.55;107705;1295;22009;-77
2021/12/17 14:10:33;;;;;;;20.10;8.50;;;;;;;5.83;68.19;102010.62;107249;1298;22019;-77
2021/12/17 14:13:23;;;;;;;22.60;9.00;;;;;;;5.78;68.34;102011.98;107547;1298;23630;-76
2021/12/17 14:16:08;;;;;;;21.00;8.50;;;;;;;5.71;68.40;102011.73;107798;1293;22031;-77
2021/12/17 14:19:12;;;;;;;21.90;9.20;;;;;;;5.64;68.42;102009.71;107798;1294;23055;-77
2021/12/17 14:21:53;;;;;;;22.00;10.90;;;;;;;5.58;68.66;102009.23;107712;1295;22047;-76
2021/12/17 14:24:35;;;;;;;19.10;7.50;;;;;;;5.53;68.85;102011.41;107330;1299;22048;-77
2021/12/17 14:27:15;;;;;;;23.70;8.40;;;;;;;5.48;68.98;102001.23;106899;1304;22002;-76
2021/12/17 14:30:34;;;;;;;;;;;;;;;;;;;;;
2021/12/17 14:33:25;;;;;;;19.60;8.30;;;;;;;5.33;69.10;102015.06;106928;1303;22279;-77
2021/12/17 14:36:11;;;;;;;19.20;7.50;;;;;;;5.30;69.21;102019.11;106282;1306;22041;-77
2021/12/17 14:39:15;;;;;;;;;;;;;;;5.27;69.16;102014.77;105885;1310;22116;-75
2021/12/17 14:41:58;;;;;;;31.80;11.50;;;;;;;5.16;69.27;102027.13;105871;1309;22811;-76
2021/12/17 14:44:55;;;;;;;26.40;12.70;;;;;;;5.12;69.51;102035.38;106019;1306;22250;-76
2021/12/17 14:47:53;;;;;;;27.30;12.50;;;;;;;5.12;69.68;102037.69;106643;1300;22009;-76
2021/12/17 14:57:24;;;;;;;33.20;12.10;;;;;;;5.09;70.04;102027.02;107945;1289;21998;-77
2021/12/17 15:03:53;;;;;;;;;;;;;;;;;;;;;
2021/12/17 15:06:46;;;;;;;23.50;10.60;;;;;;;5.07;70.71;102004.59;107625;1295;23052;-76
2021/12/17 15:09:45;;;;;;;23.70;10.00;;;;;;;5.04;70.43;102001.98;107435;1295;23958;-77
2021/12/17 15:12:44;;;;;;;22.50;9.40;;;;;;;4.98;70.34;102007.27;107483;1293;22106;-76